Time;durP1;ratioP1;P1;durP2;ratioP2;P2;SDS_P1;SDS_P2;PMS_P1;PMS_P2;Temp;Humidity;BMP_temperature;BMP_pressure;BME280_temperature;BME280_humidity;BME280_pressure;Samples;Min_cycle;Max_cycle;Signal;HPM_P1;HPM_P2
2023/04/27 00:02:21;;;;;;;6.72;4.15;;;;;;;-146.18;100.00;67994.34;10101808;28;20086;-69
2023/04/27 00:07:18;;;;;;;10.68;4.60;;;;;;;-146.18;100.00;67994.34;10093477;28;20042;-68
2023/04/27 00:12:14;;;;;;;6.68;4.35;;;;;;;-146.18;100.00;67994.34;10103935;28;20079;-68
2023/04/27 00:17:11;;;;;;;9.05;4.82;;;;;;;-146.18;100.00;67994.34;10103040;28;20042;-67
2023/04/27 00:22:07;;;;;;;5.70;4.45;;;;;;;-146.18;100.00;67994.34;10108478;28;20142;-69
2023/04/27 00:27:04;;;;;;;12.40;5.53;;;;;;;-146.18;100.00;67994.34;10101201;28;20094;-68
2023/04/27 00:32:01;;;;;;;10.40;5.00;;;;;;;-146.18;100.00;67994.34;10097668;28;20146;-67
2023/04/27 00:36:57;;;;;;;6.13;4.72;;;;;;;-146.18;100.00;67994.34;10105016;28;20097;-67
2023/04/27 00:41:54;;;;;;;9.20;5.53;;;;;;;-146.18;100.00;67994.34;10111618;28;20083;-66
2023/04/27 00:46:54;;;;;;;6.10;4.47;;;;;;;-146.18;100.00;67994.34;10107435;28;20509;-67
2023/04/27 00:51:50;;;;;;;9.07;4.80;;;;;;;-146.18;100.00;67994.34;10121525;28;20078;-68
2023/04/27 00:56:48;;;;;;;9.82;4.72;;;;;;;-146.18;100.00;67994.34;10111721;28;20135;-67
2023/04/27 01:01:45;;;;;;;10.60;5.10;;;;;;;-146.18;100.00;67994.34;10101226;28;20047;-68
2023/04/27 01:06:42;;;;;;;5.93;4.68;;;;;;;-146.18;100.00;67994.34;10112168;28;20067;-68
2023/04/27 01:11:39;;;;;;;7.78;5.00;;;;;;;-146.18;100.00;67994.34;10103095;28;20641;-68
2023/04/27 01:16:36;;;;;;;6.93;5.32;;;;;;;-146.18;100.00;67994.34;10101945;28;20131;-68
2023/04/27 01:21:32;;;;;;;10.98;4.80;;;;;;;-146.18;100.00;67994.34;10102646;28;20069;-68
2023/04/27 01:26:29;;;;;;;8.57;5.38;;;;;;;-146.18;100.00;67994.34;10095711;28;20407;-68
2023/04/27 01:31:25;;;;;;;8.88;5.03;;;;;;;-146.18;100.00;67994.34;10111423;28;20050;-68
2023/04/27 01:36:22;;;;;;;7.13;4.72;;;;;;;-146.18;100.00;67994.34;10103498;28;20070;-68
2023/04/27 01:41:18;;;;;;;6.63;4.97;;;;;;;-146.18;100.00;67994.34;10112090;28;20050;-67
2023/04/27 01:46:15;;;;;;;8.65;5.50;;;;;;;-146.18;100.00;67994.34;10099398;28;20048;-67
2023/04/27 01:51:11;;;;;;;9.65;5.10;;;;;;;-146.18;100.00;67994.34;10107510;28;20047;-69
2023/04/27 01:56:09;;;;;;;8.55;4.88;;;;;;;-146.18;100.00;67994.34;10109342;28;20153;-69
2023/04/27 02:01:05;;;;;;;15.18;5.13;;;;;;;-146.18;100.00;67994.34;10101465;28;20045;-69
2023/04/27 02:06:04;;;;;;;7.85;5.68;;;;;;;-146.18;100.00;67994.34;10110559;28;20424;-68
2023/04/27 02:11:01;;;;;;;11.38;4.70;;;;;;;-146.18;100.00;67994.34;10101839;28;20138;-67
2023/04/27 02:16:03;;;;;;;10.65;4.82;;;;;;;-146.18;100.00;67994.34;10113091;28;20065;-67
2023/04/27 02:20:59;;;;;;;7.05;5.07;;;;;;;-146.18;100.00;67994.34;10084663;28;20521;-68
2023/04/27 02:25:56;;;;;;;9.77;5.05;;;;;;;-146.18;100.00;67994.34;10095893;28;20078;-69
2023/04/27 02:30:52;;;;;;;6.72;4.88;;;;;;;-146.18;100.00;67994.34;10102090;28;20091;-69
2023/04/27 02:35:49;;;;;;;8.88;5.07;;;;;;;-146.18;100.00;67994.34;10097054;28;20058;-69
2023/04/27 02:40:45;;;;;;;6.25;4.80;;;;;;;-146.18;100.00;67994.34;10094121;28;20059;-69
2023/04/27 02:45:42;;;;;;;9.73;5.70;;;;;;;-146.18;100.00;67994.34;10109276;28;20047;-69
2023/04/27 02:50:43;;;;;;;8.32;4.78;;;;;;;-146.18;100.00;67994.34;10096291;28;20081;-69
2023/04/27 02:55:46;;;;;;;6.95;5.40;;;;;;;-146.18;100.00;67994.34;10105590;28;20520;-69
2023/04/27 03:00:42;;;;;;;6.10;5.32;;;;;;;-146.18;100.00;67994.34;10107619;28;20049;-67
2023/04/27 03:05:39;;;;;;;9.10;5.30;;;;;;;-146.18;100.00;67994.34;10102486;28;20054;-68
2023/04/27 03:10:36;;;;;;;7.55;5.55;;;;;;;-146.18;100.00;67994.34;10102829;28;20089;-68
2023/04/27 03:15:33;;;;;;;8.68;5.93;;;;;;;-146.18;100.00;67994.34;10106976;28;20102;-69
2023/04/27 03:20:30;;;;;;;6.82;5.38;;;;;;;-146.18;100.00;67994.34;10096397;28;20150;-70
2023/04/27 03:25:27;;;;;;;7.15;5.78;;;;;;;-146.18;100.00;67994.34;10101663;28;20100;-68
2023/04/27 03:30:23;;;;;;;8.10;5.15;;;;;;;-146.18;100.00;67994.34;10106416;28;20482;-68
2023/04/27 03:35:20;;;;;;;7.38;5.15;;;;;;;-146.18;100.00;67994.34;10099449;28;20047;-68
2023/04/27 03:40:16;;;;;;;10.27;5.70;;;;;;;-146.18;100.00;67994.34;10101574;28;20082;-67
2023/04/27 03:45:15;;;;;;;9.73;6.90;;;;;;;-146.18;100.00;67994.34;10100865;28;20050;-67
2023/04/27 03:50:12;;;;;;;9.32;5.53;;;;;;;-146.18;100.00;67994.34;10092605;28;20588;-69
2023/04/27 03:55:08;;;;;;;9.70;5.47;;;;;;;-146.18;100.00;67994.34;10106480;28;20042;-67
2023/04/27 04:00:10;;;;;;;10.88;6.38;;;;;;;-146.18;100.00;67994.34;10104768;28;20047;-68
2023/04/27 04:05:08;;;;;;;8.00;6.35;;;;;;;-146.18;100.00;67994.34;10105611;28;20471;-67
2023/04/27 04:10:06;;;;;;;9.15;6.85;;;;;;;-146.18;100.00;67994.34;10101570;28;20051;-70
2023/04/27 04:15:06;;;;;;;7.32;5.47;;;;;;;-146.18;100.00;67994.34;10109779;28;20069;-70
2023/04/27 04:20:09;;;;;;;6.95;5.60;;;;;;;-146.18;100.00;67994.34;10096514;28;20501;-69
2023/04/27 04:25:06;;;;;;;10.90;6.55;;;;;;;-146.18;100.00;67994.34;10103161;28;20109;-69
2023/04/27 04:30:05;;;;;;;12.68;7.22;;;;;;;-146.18;100.00;67994.34;10100430;28;20055;-68
2023/04/27 04:35:04;;;;;;;14.13;8.10;;;;;;;-146.18;100.00;67994.34;10096530;28;20798;-73
2023/04/27 04:40:07;;;;;;;10.90;7.13;;;;;;;-146.18;100.00;67994.34;10104280;28;20043;-75
2023/04/27 04:45:05;;;;;;;10.35;8.00;;;;;;;-146.18;100.00;67994.34;10118304;28;20681;-73
2023/04/27 04:50:02;;;;;;;12.15;8.15;;;;;;;-146.18;100.00;67994.34;10099439;28;20053;-73
2023/04/27 04:54:59;;;;;;;8.88;7.10;;;;;;;-146.18;100.00;67994.34;10106143;28;20063;-73
2023/04/27 04:59:56;;;;;;;10.40;8.30;;;;;;;-146.18;100.00;67994.34;10093198;28;20401;-73
2023/04/27 05:04:53;;;;;;;13.88;9.15;;;;;;;-146.18;100.00;67994.34;10105351;28;20094;-73
2023/04/27 05:09:49;;;;;;;16.98;8.80;;;;;;;-146.18;100.00;67994.34;10106864;28;20055;-74
2023/04/27 05:14:47;;;;;;;11.75;9.02;;;;;;;-146.18;100.00;67994.34;10105775;28;20074;-73
2023/04/27 05:19:43;;;;;;;12.25;8.18;;;;;;;-146.18;100.00;67994.34;10107679;28;20432;-73
2023/04/27 05:24:40;;;;;;;10.30;8.45;;;;;;;-146.18;100.00;67994.34;10110183;28;20055;-73
2023/04/27 05:29:37;;;;;;;13.18;8.27;;;;;;;-146.18;100.00;67994.34;10126477;28;20512;-73
2023/04/27 05:34:33;;;;;;;13.70;8.80;;;;;;;-146.18;100.00;67994.34;10112520;28;20133;-73
2023/04/27 05:39:30;;;;;;;11.40;8.57;;;;;;;-146.18;100.00;67994.34;10109353;28;20556;-74
2023/04/27 05:44:34;;;;;;;8.90;7.88;;;;;;;-146.18;100.00;67994.34;10105422;28;20043;-71
2023/04/27 05:49:33;;;;;;;11.88;8.32;;;;;;;-146.18;100.00;67994.34;10103889;28;20043;-75
2023/04/27 05:54:36;;;;;;;15.50;8.45;;;;;;;-146.18;100.00;67994.34;10097210;28;20138;-73
2023/04/27 05:59:38;;;;;;;10.18;8.20;;;;;;;-146.18;100.00;67994.34;10092597;28;20769;-74
2023/04/27 06:04:48;;;;;;;12.55;8.27;;;;;;;-146.18;100.00;67994.34;10103431;28;20514;-72
2023/04/27 06:09:46;;;;;;;10.75;8.27;;;;;;;-146.18;100.00;67994.34;10101621;28;20074;-72
2023/04/27 06:14:48;;;;;;;7.63;6.65;;;;;;;-146.18;100.00;67994.34;10097502;28;20047;-71
2023/04/27 06:19:50;;;;;;;11.73;7.60;;;;;;;-146.18;100.00;67994.34;10096330;28;20050;-71
2023/04/27 06:24:52;;;;;;;11.38;7.63;;;;;;;-146.18;100.00;67994.34;10091805;28;20525;-71
2023/04/27 06:29:55;;;;;;;9.15;7.50;;;;;;;-146.18;100.00;67994.34;10089777;28;20050;-71
2023/04/27 06:34:52;;;;;;;10.40;6.95;;;;;;;-146.18;100.00;67994.34;10100151;28;20046;-73
2023/04/27 06:39:51;;;;;;;8.90;7.22;;;;;;;-146.18;100.00;67994.34;10094671;28;20042;-72
2023/04/27 06:44:52;;;;;;;8.10;7.30;;;;;;;-146.18;100.00;67994.34;10099432;28;20042;-72
2023/04/27 06:49:49;;;;;;;11.55;6.80;;;;;;;-146.18;100.00;67994.34;10103975;28;20042;-73
2023/04/27 06:54:51;;;;;;;10.23;6.90;;;;;;;-146.18;100.00;67994.34;10101154;28;20039;-73
2023/04/27 06:59:56;;;;;;;9.55;7.22;;;;;;;-146.18;100.00;67994.34;10081562;28;20533;-72
2023/04/27 07:04:54;;;;;;;9.80;7.05;;;;;;;-146.18;100.00;67994.34;10083046;28;20109;-73
2023/04/27 07:09:56;;;;;;;14.73;6.93;;;;;;;-146.18;100.00;67994.34;10098341;28;20054;-73
2023/04/27 07:15:01;;;;;;;13.20;6.82;;;;;;;-146.18;100.00;67994.34;10076620;28;20116;-73
2023/04/27 07:20:00;;;;;;;12.48;7.10;;;;;;;-146.18;100.00;67994.34;10096938;28;20054;-73
2023/04/27 07:25:09;;;;;;;8.68;6.47;;;;;;;-146.18;100.00;67994.34;10097699;28;20141;-73
2023/04/27 07:30:12;;;;;;;9.90;6.45;;;;;;;-146.18;100.00;67994.34;10084683;28;20512;-72
2023/04/27 07:35:09;;;;;;;9.38;5.45;;;;;;;-146.18;100.00;67994.34;10094321;28;20085;-73
2023/04/27 07:40:18;;;;;;;6.80;5.83;;;;;;;-146.18;100.00;67994.34;10093891;28;20047;-73
2023/04/27 07:45:31;;;;;;;9.57;6.90;;;;;;;-146.18;100.00;67994.34;10105197;28;20050;-72
2023/04/27 07:50:31;;;;;;;8.38;5.88;;;;;;;-146.18;100.00;67994.34;10111275;28;20046;-72
2023/04/27 07:55:33;;;;;;;5.93;5.40;;;;;;;-146.18;100.00;67994.34;10117846;28;20074;-73
2023/04/27 08:00:33;;;;;;;9.13;5.50;;;;;;;-146.18;100.00;67994.34;10107954;28;20047;-73
2023/04/27 08:05:32;;;;;;;8.55;5.15;;;;;;;-146.18;100.00;67994.34;10105407;28;20043;-73
2023/04/27 08:10:33;;;;;;;6.50;5.55;;;;;;;-146.18;100.00;67994.34;10107480;28;20129;-72
2023/04/27 08:15:38;;;;;;;6.63;5.90;;;;;;;-146.18;100.00;67994.34;10108214;28;20039;-72
2023/04/27 08:20:45;;;;;;;7.33;6.33;;;;;;;-146.18;100.00;67994.34;10093445;28;20047;-71
2023/04/27 08:25:44;;;;;;;7.35;6.32;;;;;;;-146.18;100.00;67994.34;10099398;28;20042;-73
2023/04/27 08:30:46;;;;;;;10.90;6.63;;;;;;;-146.18;100.00;67994.34;10105098;28;20050;-73
2023/04/27 08:35:46;;;;;;;7.27;5.73;;;;;;;-146.18;100.00;67994.34;10102861;28;20060;-73
2023/04/27 08:40:50;;;;;;;8.27;5.75;;;;;;;-146.18;100.00;67994.34;10092703;28;20051;-72
2023/04/27 08:45:53;;;;;;;10.88;6.07;;;;;;;-146.18;100.00;67994.34;10103707;28;20105;-74
2023/04/27 08:50:51;;;;;;;9.32;5.82;;;;;;;-146.18;100.00;67994.34;10105023;28;20750;-73
2023/04/27 08:56:01;;;;;;;8.98;5.70;;;;;;;-146.18;100.00;67994.34;10096975;28;20066;-73
2023/04/27 09:01:07;;;;;;;7.03;6.30;;;;;;;-146.18;100.00;67994.34;10098702;28;20066;-74
2023/04/27 09:06:19;;;;;;;7.05;5.13;;;;;;;-146.18;100.00;67994.34;9807537;28;8641373;-73
2023/04/27 09:11:33;;;;;;;7.82;5.28;;;;;;;-146.18;100.00;67994.34;10108388;28;20039;-73
2023/04/27 09:16:39;;;;;;;6.70;5.30;;;;;;;-146.18;100.00;67994.34;10101025;28;20054;-73
2023/04/27 09:21:48;;;;;;;7.45;5.55;;;;;;;-146.18;100.00;67994.34;10095357;28;20047;-73
2023/04/27 09:26:56;;;;;;;7.57;4.95;;;;;;;-146.18;100.00;67994.34;10093856;28;20050;-73
2023/04/27 09:32:04;;;;;;;8.15;6.03;;;;;;;-146.18;100.00;67994.34;10102516;28;20059;-73
2023/04/27 09:37:09;;;;;;;5.60;5.10;;;;;;;-146.18;100.00;67994.34;10107849;28;20046;-73
2023/04/27 09:42:08;;;;;;;6.20;5.00;;;;;;;-146.18;100.00;67994.34;10092044;28;20129;-73
2023/04/27 09:47:09;;;;;;;7.45;5.50;;;;;;;-146.18;100.00;67994.34;10108142;28;20070;-73
2023/04/27 09:52:11;;;;;;;7.25;4.93;;;;;;;-146.18;100.00;67994.34;10103898;28;20070;-72
2023/04/27 09:57:31;;;;;;;5.25;4.60;;;;;;;-146.18;100.00;67994.34;10104194;28;20644;-72
2023/04/27 10:02:33;;;;;;;5.70;5.00;;;;;;;-146.18;100.00;67994.34;10093548;28;20078;-72
2023/04/27 10:08:05;;;;;;;8.35;5.43;;;;;;;-146.18;100.00;67994.34;10097564;28;20457;-73
2023/04/27 10:13:19;;;;;;;8.80;5.20;;;;;;;-146.18;100.00;67994.34;10100528;28;20046;-73
2023/04/27 10:18:53;;;;;;;5.97;5.10;;;;;;;-146.18;100.00;67994.34;10105474;28;20146;-72
2023/04/27 10:23:53;;;;;;;7.20;5.35;;;;;;;-146.18;100.00;67994.34;10101868;28;20043;-72
2023/04/27 10:29:05;;;;;;;6.32;5.05;;;;;;;-146.18;100.00;67994.34;10103249;28;20043;-72
2023/04/27 10:34:10;;;;;;;8.77;5.35;;;;;;;-146.18;100.00;67994.34;10109624;28;20042;-72
2023/04/27 10:39:26;;;;;;;6.57;5.13;;;;;;;-146.18;100.00;67994.34;10101613;28;20443;-72
2023/04/27 10:44:41;;;;;;;5.95;5.35;;;;;;;-146.18;100.00;67994.34;10102728;28;20057;-72
2023/04/27 10:49:41;;;;;;;7.13;5.15;;;;;;;-146.18;100.00;67994.34;10094468;28;20541;-73
2023/04/27 10:54:49;;;;;;;7.30;6.70;;;;;;;-146.18;100.00;67994.34;10104436;28;20130;-72
2023/04/27 10:59:53;;;;;;;9.02;5.78;;;;;;;-146.18;100.00;67994.34;10091676;28;20040;-73
2023/04/27 11:05:06;;;;;;;7.30;5.10;;;;;;;-146.18;100.00;67994.34;10096357;28;20138;-72
2023/04/27 11:10:16;;;;;;;6.88;5.15;;;;;;;-146.18;100.00;67994.34;10106071;28;20049;-72
2023/04/27 11:15:17;;;;;;;13.05;5.95;;;;;;;-146.18;100.00;67994.34;10101526;28;20047;-73
2023/04/27 11:20:34;;;;;;;9.77;5.80;;;;;;;-146.18;100.00;67994.34;10103083;28;20050;-72
2023/04/27 11:25:45;;;;;;;6.35;5.53;;;;;;;-146.18;100.00;67994.34;10102264;28;20508;-73
2023/04/27 11:30:44;;;;;;;6.68;5.50;;;;;;;-146.18;100.00;67994.34;10086060;28;20050;-73
2023/04/27 11:35:46;;;;;;;7.23;6.53;;;;;;;-146.18;100.00;67994.34;10094437;28;20058;-73
2023/04/27 11:41:00;;;;;;;6.43;5.82;;;;;;;-146.18;100.00;67994.34;10089236;28;20109;-72
2023/04/27 11:46:09;;;;;;;8.68;7.55;;;;;;;-146.18;100.00;67994.34;10095339;28;20046;-73
2023/04/27 11:51:10;;;;;;;11.25;5.95;;;;;;;-146.18;100.00;67994.34;10095474;28;20046;-73
2023/04/27 11:56:12;;;;;;;7.25;5.90;;;;;;;-146.18;100.00;67994.34;10099476;28;20109;-73
2023/04/27 12:01:12;;;;;;;6.57;6.00;;;;;;;-146.18;100.00;67994.34;10098633;28;20536;-73
2023/04/27 12:06:32;;;;;;;6.75;6.00;;;;;;;-146.18;100.00;67994.34;10096135;28;20074;-73
2023/04/27 12:11:32;;;;;;;6.72;5.97;;;;;;;-146.18;100.00;67994.34;10106845;28;20416;-73
2023/04/27 12:16:37;;;;;;;7.97;5.47;;;;;;;-146.18;100.00;67994.34;10102654;28;20122;-73
2023/04/27 12:21:44;;;;;;;8.23;5.40;;;;;;;-146.18;100.00;67994.34;10106317;28;20109;-73
2023/04/27 12:26:46;;;;;;;7.15;5.20;;;;;;;-146.18;100.00;67994.34;10089067;28;20069;-73
2023/04/27 12:31:45;;;;;;;6.80;5.10;;;;;;;-146.18;100.00;67994.34;10105687;28;20043;-73
2023/04/27 12:36:51;;;;;;;5.50;4.97;;;;;;;-146.18;100.00;67994.34;10106921;28;20170;-73
2023/04/27 12:41:57;;;;;;;6.60;5.03;;;;;;;-146.18;100.00;67994.34;10111568;28;20101;-73
2023/04/27 12:46:57;;;;;;;7.88;5.68;;;;;;;-146.18;100.00;67994.34;10111752;28;20047;-73
2023/04/27 12:52:03;;;;;;;5.80;5.25;;;;;;;-146.18;100.00;67994.34;10114045;28;20137;-73
2023/04/27 12:57:02;;;;;;;7.25;6.18;;;;;;;-146.18;100.00;67994.34;10094268;28;20066;-73
2023/04/27 13:02:00;;;;;;;7.15;6.45;;;;;;;-146.18;100.00;67994.34;10104882;28;20120;-73
2023/04/27 13:06:59;;;;;;;6.03;5.43;;;;;;;-146.18;100.00;67994.34;10113862;28;20428;-72
2023/04/27 13:12:03;;;;;;;5.93;5.35;;;;;;;-146.18;100.00;67994.34;10093895;28;20058;-72
2023/04/27 13:17:13;;;;;;;9.32;5.85;;;;;;;-146.18;100.00;67994.34;10110184;28;20078;-72
2023/04/27 13:22:13;;;;;;;10.20;6.40;;;;;;;-146.18;100.00;67994.34;10095501;28;20510;-72
2023/04/27 13:27:15;;;;;;;10.20;6.43;;;;;;;-146.18;100.00;67994.34;10105255;28;20082;-71
2023/04/27 13:32:20;;;;;;;8.57;6.75;;;;;;;-146.18;100.00;67994.34;10107202;28;20071;-71
2023/04/27 13:37:31;;;;;;;7.25;6.63;;;;;;;-146.18;100.00;67994.34;10101109;28;20051;-72
2023/04/27 13:42:45;;;;;;;7.65;6.90;;;;;;;-146.18;100.00;67994.34;10106264;28;20079;-72
2023/04/27 13:47:45;;;;;;;9.95;6.28;;;;;;;-146.18;100.00;67994.34;10099964;28;20094;-72
2023/04/27 13:52:45;;;;;;;8.20;7.40;;;;;;;-146.18;100.00;67994.34;10097562;28;20039;-72
2023/04/27 13:57:52;;;;;;;7.85;7.05;;;;;;;-146.18;100.00;67994.34;10108416;28;20089;-71
2023/04/27 14:03:03;;;;;;;;;;;;;;;-146.18;100.00;67994.34;10111907;28;20121;-72
2023/04/27 14:08:05;;;;;;;8.05;7.10;;;;;;;-146.18;100.00;67994.34;10108161;28;20376;-73
2023/04/27 14:13:05;;;;;;;7.53;6.43;;;;;;;-146.18;100.00;67994.34;10102036;28;20559;-72
2023/04/27 14:18:07;;;;;;;;;;;;;;;-146.18;100.00;67994.34;10104563;28;20130;-72
2023/04/27 14:23:16;;;;;;;7.47;6.25;;;;;;;-146.18;100.00;67994.34;10108663;28;20012;-72
2023/04/27 14:28:19;;;;;;;7.18;6.47;;;;;;;-146.18;100.00;67994.34;10103052;28;20074;-72
2023/04/27 14:33:27;;;;;;;8.13;6.40;;;;;;;-146.18;100.00;67994.34;10102432;28;20062;-72
2023/04/27 14:38:29;;;;;;;7.90;5.78;;;;;;;-146.18;100.00;67994.34;10102998;28;20741;-72
2023/04/27 14:43:28;;;;;;;8.30;6.43;;;;;;;-146.18;100.00;67994.34;10101661;28;20074;-71
2023/04/27 14:48:34;;;;;;;7.13;5.40;;;;;;;-146.18;100.00;67994.34;10094106;28;20105;-72
2023/04/27 14:53:34;;;;;;;6.72;5.82;;;;;;;-146.18;100.00;67994.34;10097022;28;20133;-71
2023/04/27 14:58:36;;;;;;;8.07;5.88;;;;;;;-146.18;100.00;67994.34;10088949;28;20504;-72
2023/04/27 15:03:44;;;;;;;6.72;5.72;;;;;;;-146.18;100.00;67994.34;10100856;28;20074;-73
2023/04/27 15:08:48;;;;;;;9.82;5.80;;;;;;;-146.18;100.00;67994.34;10097720;28;20049;-72
2023/04/27 15:13:51;;;;;;;7.05;6.35;;;;;;;-146.18;100.00;67994.34;10109127;28;20598;-72
2023/04/27 15:18:57;;;;;;;6.38;5.75;;;;;;;-146.18;100.00;67994.34;10095877;28;20765;-72
2023/04/27 15:23:59;;;;;;;10.57;6.35;;;;;;;-146.18;100.00;67994.34;10100506;28;20080;-72
2023/04/27 15:29:00;;;;;;;10.13;6.70;;;;;;;-146.18;100.00;67994.34;10094526;28;20417;-72
2023/04/27 15:34:09;;;;;;;10.35;6.35;;;;;;;-146.18;100.00;67994.34;10104753;28;20051;-72
2023/04/27 15:39:06;;;;;;;9.57;7.03;;;;;;;-146.18;100.00;67994.34;10107032;28;20413;-72
2023/04/27 15:44:13;;;;;;;7.47;6.13;;;;;;;-146.18;100.00;67994.34;10103702;28;20051;-72
2023/04/27 15:49:21;;;;;;;9.32;6.32;;;;;;;-146.18;100.00;67994.34;10098671;28;20055;-72
2023/04/27 15:54:20;;;;;;;10.13;6.72;;;;;;;-146.18;100.00;67994.34;10096389;28;20053;-73
2023/04/27 15:59:23;;;;;;;10.27;6.90;;;;;;;-146.18;100.00;67994.34;10102177;28;20138;-73
2023/04/27 16:04:26;;;;;;;8.40;7.20;;;;;;;-146.18;100.00;67994.34;10106263;28;20046;-73
2023/04/27 16:09:26;;;;;;;7.60;6.72;;;;;;;-146.18;100.00;67994.34;10099323;28;20051;-72
2023/04/27 16:14:26;;;;;;;9.18;7.45;;;;;;;-146.18;100.00;67994.34;10098624;28;20074;-72
2023/04/27 16:19:28;;;;;;;12.23;7.10;;;;;;;-146.18;100.00;67994.34;10114645;28;20081;-73
2023/04/27 16:24:28;;;;;;;11.75;7.47;;;;;;;-146.18;100.00;67994.34;10099265;28;20044;-73
2023/04/27 16:29:24;;;;;;;11.77;6.97;;;;;;;-146.18;100.00;67994.34;10104090;28;20067;-72
2023/04/27 16:34:24;;;;;;;9.13;7.07;;;;;;;-146.18;100.00;67994.34;10094069;28;20057;-73
2023/04/27 16:39:27;;;;;;;8.18;7.22;;;;;;;-146.18;100.00;67994.34;10101767;28;20047;-72
2023/04/27 16:44:32;;;;;;;8.73;7.57;;;;;;;-146.18;100.00;67994.34;10104095;28;20082;-73
2023/04/27 16:49:37;;;;;;;9.82;7.75;;;;;;;-146.18;100.00;67994.34;10104399;28;20050;-73
2023/04/27 16:54:36;;;;;;;13.15;8.25;;;;;;;-146.18;100.00;67994.34;10104440;28;20505;-72
2023/04/27 16:59:33;;;;;;;9.35;7.70;;;;;;;-146.18;100.00;67994.34;10100542;28;20148;-72
2023/04/27 17:04:38;;;;;;;9.88;8.15;;;;;;;-146.18;100.00;67994.34;10105087;28;20146;-72
2023/04/27 17:09:38;;;;;;;11.68;8.52;;;;;;;-146.18;100.00;67994.34;10101996;28;20432;-73
2023/04/27 17:14:42;;;;;;;12.07;8.02;;;;;;;-146.18;100.00;67994.34;10099662;28;20696;-73
2023/04/27 17:19:42;;;;;;;9.45;7.70;;;;;;;-146.18;100.00;67994.34;10101136;28;20128;-73
2023/04/27 17:24:40;;;;;;;8.93;8.00;;;;;;;-146.18;100.00;67994.34;10105859;28;20053;-73
2023/04/27 17:29:39;;;;;;;10.40;8.50;;;;;;;-146.18;100.00;67994.34;10096294;28;20077;-73
2023/04/27 17:34:38;;;;;;;10.05;8.20;;;;;;;-146.18;100.00;67994.34;10105957;28;20042;-73
2023/04/27 17:39:44;;;;;;;10.23;8.40;;;;;;;-146.18;100.00;67994.34;10104368;28;20071;-72
2023/04/27 17:44:41;;;;;;;;;;;;;;;-146.18;100.00;67994.34;10095488;28;20046;-72
2023/04/27 17:49:41;;;;;;;11.80;8.50;;;;;;;-146.18;100.00;67994.34;10107708;28;19964;-72
2023/04/27 17:54:50;;;;;;;11.32;8.45;;;;;;;-146.18;100.00;67994.34;10108512;28;20129;-73
2023/04/27 17:59:51;;;;;;;9.93;8.20;;;;;;;-146.18;100.00;67994.34;10099023;28;20035;-73
2023/04/27 18:04:51;;;;;;;7.80;7.00;;;;;;;-146.18;100.00;67994.34;10105428;28;20058;-73
2023/04/27 18:09:51;;;;;;;10.40;7.40;;;;;;;-146.18;100.00;67994.34;10102658;28;20074;-72
2023/04/27 18:14:53;;;;;;;11.10;7.35;;;;;;;-146.18;100.00;67994.34;10108153;28;20051;-72
2023/04/27 18:20:06;;;;;;;13.18;7.15;;;;;;;-146.18;100.00;67994.34;10093649;28;20054;-72
2023/04/27 18:25:09;;;;;;;9.63;7.15;;;;;;;-146.18;100.00;67994.34;10096938;28;20051;-71
2023/04/27 18:30:12;;;;;;;11.75;8.05;;;;;;;-146.18;100.00;67994.34;10116885;28;20066;-72
2023/04/27 18:35:14;;;;;;;11.75;7.43;;;;;;;-146.18;100.00;67994.34;10107526;28;20061;-72
2023/04/27 18:40:18;;;;;;;10.73;7.22;;;;;;;-146.18;100.00;67994.34;10097055;28;20047;-72
2023/04/27 18:45:20;;;;;;;10.13;7.72;;;;;;;-146.18;100.00;67994.34;10107774;28;20050;-72
2023/04/27 18:50:27;;;;;;;9.30;8.05;;;;;;;-146.18;100.00;67994.34;10092699;28;20512;-72
2023/04/27 18:55:38;;;;;;;12.20;8.02;;;;;;;-146.18;100.00;67994.34;10105570;28;20510;-72
2023/04/27 19:00:40;;;;;;;9.52;7.85;;;;;;;-146.18;100.00;67994.34;10094036;28;20046;-72
2023/04/27 19:05:41;;;;;;;12.68;8.07;;;;;;;-146.18;100.00;67994.34;10096496;28;20051;-72
2023/04/27 19:10:41;;;;;;;10.88;7.75;;;;;;;-146.18;100.00;67994.34;10088066;28;20502;-73
2023/04/27 19:15:40;;;;;;;12.95;9.70;;;;;;;-146.18;100.00;67994.34;10100924;28;20050;-73
2023/04/27 19:20:42;;;;;;;16.73;9.85;;;;;;;-146.18;100.00;67994.34;10102680;28;20047;-72
2023/04/27 19:25:40;;;;;;;15.38;10.57;;;;;;;-146.18;100.00;67994.34;10099077;28;20567;-73
2023/04/27 19:30:40;;;;;;;14.52;9.18;;;;;;;-146.18;100.00;67994.34;10098133;28;20501;-72
2023/04/27 19:35:37;;;;;;;13.63;9.27;;;;;;;-146.18;100.00;67994.34;10102827;28;20047;-73
2023/04/27 19:40:37;;;;;;;14.32;9.18;;;;;;;-146.18;100.00;67994.34;10099483;28;20629;-72
2023/04/27 19:45:37;;;;;;;10.07;8.05;;;;;;;-146.18;100.00;67994.34;10112505;28;20047;-70
2023/04/27 19:50:42;;;;;;;11.98;8.77;;;;;;;-146.18;100.00;67994.34;10103832;28;20102;-72
2023/04/27 19:55:42;;;;;;;9.93;8.90;;;;;;;-146.18;100.00;67994.34;10101365;28;20512;-73
2023/04/27 20:00:41;;;;;;;16.67;9.55;;;;;;;-146.18;100.00;67994.34;10115793;28;20077;-73
2023/04/27 20:05:43;;;;;;;11.15;8.85;;;;;;;-146.18;100.00;67994.34;10114549;28;20078;-72
2023/04/27 20:10:40;;;;;;;;;;;;;;;-146.18;100.00;67994.34;10101719;28;20051;-72
2023/04/27 20:15:39;;;;;;;12.10;9.27;;;;;;;-146.18;100.00;67994.34;10108140;28;19949;-72
2023/04/27 20:20:41;;;;;;;11.52;8.60;;;;;;;-146.18;100.00;67994.34;10109064;28;20054;-68
2023/04/27 20:25:41;;;;;;;13.43;9.73;;;;;;;-146.18;100.00;67994.34;10114488;28;20141;-68
2023/04/27 20:30:41;;;;;;;14.15;10.48;;;;;;;-146.18;100.00;67994.34;10118853;28;20066;-67
2023/04/27 20:35:45;;;;;;;11.55;9.60;;;;;;;-146.18;100.00;67994.34;10116469;28;20039;-67
2023/04/27 20:40:57;;;;;;;15.80;9.23;;;;;;;-146.18;100.00;67994.34;10119705;28;20078;-66
2023/04/27 20:46:00;;;;;;;13.02;9.02;;;;;;;-146.18;100.00;67994.34;10112113;28;20120;-64
2023/04/27 20:50:57;;;;;;;11.18;8.63;;;;;;;-146.18;100.00;67994.34;10136755;28;20053;-64
2023/04/27 20:55:59;;;;;;;12.95;9.55;;;;;;;-146.18;100.00;67994.34;10106239;28;20073;-64
2023/04/27 21:00:58;;;;;;;14.07;9.63;;;;;;;-146.18;100.00;67994.34;10110625;28;20512;-64
2023/04/27 21:06:04;;;;;;;11.52;8.90;;;;;;;-146.18;100.00;67994.34;10117954;28;20050;-65
2023/04/27 21:11:06;;;;;;;14.73;9.32;;;;;;;-146.18;100.00;67994.34;10112695;28;20135;-66
2023/04/27 21:16:04;;;;;;;15.60;10.38;;;;;;;-146.18;100.00;67994.34;10107631;28;20465;-66
2023/04/27 21:21:04;;;;;;;13.73;9.73;;;;;;;-146.18;100.00;67994.34;10121188;28;20077;-66
2023/04/27 21:26:08;;;;;;;15.52;10.80;;;;;;;-146.18;100.00;67994.34;10113164;28;20100;-66
2023/04/27 21:31:13;;;;;;;15.00;11.70;;;;;;;-146.18;100.00;67994.34;10117728;28;20047;-65
2023/04/27 21:36:10;;;;;;;18.67;11.27;;;;;;;-146.18;100.00;67994.34;10105282;28;20548;-68
2023/04/27 21:41:19;;;;;;;17.23;12.55;;;;;;;-146.18;100.00;67994.34;10116265;28;20453;-68
2023/04/27 21:46:18;;;;;;;18.98;12.68;;;;;;;-146.18;100.00;67994.34;10111282;28;20046;-65
2023/04/27 21:51:17;;;;;;;21.40;13.07;;;;;;;-146.18;100.00;67994.34;10110540;28;20063;-66
2023/04/27 21:56:25;;;;;;;16.50;12.32;;;;;;;-146.18;100.00;67994.34;10104951;28;20474;-69
2023/04/27 22:01:27;;;;;;;;;;;;;;;-146.18;100.00;67994.34;10107382;28;20053;-69
2023/04/27 22:06:27;;;;;;;20.38;12.85;;;;;;;-146.18;100.00;67994.34;10115586;28;20000;-69
2023/04/27 22:11:29;;;;;;;16.48;12.52;;;;;;;-146.18;100.00;67994.34;10111809;28;20525;-69
2023/04/27 22:16:28;;;;;;;18.48;11.65;;;;;;;-146.18;100.00;67994.34;10111748;28;20130;-68
2023/04/27 22:21:45;;;;;;;21.23;12.00;;;;;;;-146.18;100.00;67994.34;10105195;28;20539;-67
2023/04/27 22:26:57;;;;;;;17.90;12.32;;;;;;;-146.18;100.00;67994.34;10107526;28;20449;-67
2023/04/27 22:32:06;;;;;;;14.57;10.88;;;;;;;-146.18;100.00;67994.34;10109881;28;20059;-71